Time;durP1;ratioP1;P1;durP2;ratioP2;P2;SDS_P1;SDS_P2;PMS_P1;PMS_P2;Temp;Humidity;BMP_temperature;BMP_pressure;BME280_temperature;BME280_humidity;BME280_pressure;Samples;Min_cycle;Max_cycle;Signal;HPM_P1;HPM_P2
2023/06/16 00:01:35;;;;;;;7.30;4.97;;;;;;;17.42;62.19;101786.06;5087492;28;20384;-70
2023/06/16 00:04:03;;;;;;;5.97;4.80;;;;;;;17.31;62.71;101797.03;5082689;28;20033;-70
2023/06/16 00:06:29;;;;;;;6.60;4.47;;;;;;;17.27;63.76;101784.88;5080470;28;20050;-71
2023/06/16 00:08:56;;;;;;;6.47;4.50;;;;;;;17.20;63.33;101782.50;5084702;28;20440;-70
2023/06/16 00:11:22;;;;;;;8.82;5.20;;;;;;;17.18;65.75;101784.34;5086695;28;20023;-70
2023/06/16 00:13:49;;;;;;;9.75;4.88;;;;;;;17.15;63.61;101785.31;5083808;28;20039;-70
2023/06/16 00:16:19;;;;;;;7.32;5.00;;;;;;;17.08;64.12;101776.78;5084556;28;20024;-70
2023/06/16 00:18:44;;;;;;;6.47;4.70;;;;;;;17.09;64.54;101780.25;5085709;28;20032;-70
2023/06/16 00:21:10;;;;;;;7.47;4.78;;;;;;;17.03;63.89;101786.59;5074176;28;20158;-70
2023/06/16 00:23:36;;;;;;;7.32;5.30;;;;;;;16.85;63.61;101764.41;5087539;28;20063;-70
2023/06/16 00:26:01;;;;;;;9.68;4.88;;;;;;;16.95;64.20;101780.75;5065320;28;21905;-70
2023/06/16 00:28:26;;;;;;;8.98;5.43;;;;;;;16.79;64.55;101775.16;5079623;28;20542;-70
2023/06/16 00:30:52;;;;;;;8.63;5.13;;;;;;;16.82;65.32;101784.72;5074964;28;20025;-70
2023/06/16 00:33:17;;;;;;;8.48;5.30;;;;;;;16.77;65.27;101790.13;5083159;28;20529;-70
2023/06/16 00:35:43;;;;;;;7.88;5.40;;;;;;;16.73;64.70;101788.50;5084887;28;20028;-70
2023/06/16 00:38:09;;;;;;;11.02;6.03;;;;;;;16.69;65.58;101786.91;5075904;28;20065;-70
2023/06/16 00:40:35;;;;;;;12.98;5.25;;;;;;;16.66;65.96;101791.41;5082598;28;20035;-70
2023/06/16 00:43:02;;;;;;;7.63;5.30;;;;;;;16.55;64.77;101781.25;5073224;28;20028;-70
2023/06/16 00:45:28;;;;;;;8.63;5.80;;;;;;;16.44;65.64;101781.56;5082399;28;20387;-70
2023/06/16 00:47:54;;;;;;;11.98;6.05;;;;;;;16.45;65.53;101783.31;5083364;28;20536;-70
2023/06/16 00:50:21;;;;;;;9.48;5.82;;;;;;;16.45;65.86;101775.44;5074670;28;20029;-70
2023/06/16 00:52:46;;;;;;;8.05;5.68;;;;;;;16.48;68.09;101783.22;5075497;28;20103;-70
2023/06/16 00:55:12;;;;;;;9.48;5.55;;;;;;;16.37;66.18;101783.56;5074498;28;20031;-70
2023/06/16 00:57:39;;;;;;;8.13;5.80;;;;;;;16.32;67.04;101771.47;5080707;28;20119;-71
2023/06/16 01:00:07;;;;;;;10.93;5.88;;;;;;;16.31;69.14;101765.31;5078877;28;20121;-70
2023/06/16 01:02:32;;;;;;;9.55;5.45;;;;;;;16.33;67.24;101768.78;5081285;28;20028;-70
2023/06/16 01:04:58;;;;;;;12.82;6.32;;;;;;;16.32;67.09;101774.09;5083809;28;20031;-70
2023/06/16 01:07:38;;;;;;;9.13;5.50;;;;;;;16.17;66.67;101761.44;5081040;28;20032;-71
2023/06/16 01:10:17;;;;;;;8.25;5.57;;;;;;;16.24;67.37;101768.22;5070243;28;20022;-70
2023/06/16 01:13:02;;;;;;;7.82;6.03;;;;;;;16.21;67.00;101763.06;5079083;28;20487;-70
2023/06/16 01:15:31;;;;;;;9.27;6.30;;;;;;;16.18;67.45;101764.00;5075691;28;20033;-70
2023/06/16 01:18:00;;;;;;;9.10;6.70;;;;;;;16.15;68.40;101759.72;5082895;28;20021;-70
2023/06/16 01:20:38;;;;;;;7.70;5.72;;;;;;;16.09;67.47;101749.41;5081384;28;20074;-70
2023/06/16 01:23:15;;;;;;;9.75;6.00;;;;;;;16.15;68.19;101769.38;5084151;28;20032;-70
2023/06/16 01:25:42;;;;;;;7.50;5.68;;;;;;;16.08;67.23;101759.94;5077391;28;20390;-70
2023/06/16 01:28:10;;;;;;;10.10;5.80;;;;;;;16.06;67.28;101761.78;5075528;28;20047;-70
2023/06/16 01:30:40;;;;;;;11.63;5.93;;;;;;;15.98;66.64;101755.91;5081681;28;20036;-70
2023/06/16 01:33:06;;;;;;;7.78;5.93;;;;;;;16.00;67.63;101760.22;5079527;28;20074;-70
2023/06/16 01:35:33;;;;;;;7.85;5.88;;;;;;;15.98;68.19;101764.63;5073608;28;20067;-70
2023/06/16 01:37:59;;;;;;;8.15;6.00;;;;;;;15.91;67.75;101763.97;5084178;28;20044;-70
2023/06/16 01:40:25;;;;;;;9.90;6.20;;;;;;;15.92;69.33;101764.81;5080408;28;20058;-70
2023/06/16 01:42:52;;;;;;;8.35;6.03;;;;;;;15.82;67.53;101760.75;5084492;28;20031;-70
2023/06/16 01:45:19;;;;;;;10.43;6.10;;;;;;;15.82;67.30;101758.13;5081573;28;20044;-70
2023/06/16 01:47:45;;;;;;;8.10;5.90;;;;;;;15.78;67.51;101753.88;5082485;28;20055;-70
2023/06/16 01:50:12;;;;;;;7.95;5.93;;;;;;;15.62;67.05;101756.94;5077151;28;20020;-70
2023/06/16 01:52:37;;;;;;;7.53;6.30;;;;;;;15.66;67.70;101752.44;5083297;28;20391;-70
2023/06/16 01:55:03;;;;;;;9.98;6.20;;;;;;;15.62;67.89;101748.19;5082939;28;20405;-70
2023/06/16 01:57:28;;;;;;;9.18;5.70;;;;;;;15.55;68.14;101749.28;5081918;28;20032;-70
2023/06/16 02:00:02;;;;;;;8.95;5.82;;;;;;;15.50;68.51;101759.06;5083910;28;20020;-70
2023/06/16 02:02:28;;;;;;;;;;;;;;;15.58;65.29;101762.34;5081927;28;20040;-70
2023/06/16 02:04:55;;;;;;;9.43;6.63;;;;;;;15.43;68.26;101750.50;5083412;28;19916;-70
2023/06/16 02:07:30;;;;;;;8.05;5.88;;;;;;;15.44;68.68;101765.38;5082229;28;20032;-70
2023/06/16 02:09:58;;;;;;;7.97;6.30;;;;;;;15.38;68.53;101760.31;5069026;28;20028;-70
2023/06/16 02:12:23;;;;;;;9.60;7.25;;;;;;;15.38;69.74;101760.31;5083103;28;20130;-70
2023/06/16 02:14:50;;;;;;;8.85;6.13;;;;;;;15.34;69.16;101764.78;5081795;28;20487;-70
2023/06/16 02:17:16;;;;;;;11.85;6.50;;;;;;;15.27;69.20;101752.75;5086459;28;20027;-70
2023/06/16 02:19:42;;;;;;;8.73;6.57;;;;;;;15.29;69.48;101771.06;5080579;28;20074;-70
2023/06/16 02:22:08;;;;;;;12.98;6.53;;;;;;;15.23;69.35;101766.84;5089820;28;20024;-70
2023/06/16 02:24:34;;;;;;;12.48;6.45;;;;;;;15.08;69.42;101747.13;5084648;28;20024;-70
2023/06/16 02:27:00;;;;;;;8.68;6.22;;;;;;;15.08;69.54;101752.38;5092073;28;20028;-70
2023/06/16 02:29:25;;;;;;;8.45;7.00;;;;;;;15.13;70.37;101762.75;5083123;28;20446;-70
2023/06/16 02:31:50;;;;;;;8.77;6.53;;;;;;;15.06;69.82;101759.44;5091857;28;20032;-70
2023/06/16 02:34:17;;;;;;;9.50;7.18;;;;;;;15.06;70.74;101769.09;5070710;28;20035;-70
2023/06/16 02:36:43;;;;;;;11.82;7.45;;;;;;;15.03;70.02;101770.03;5086255;28;20035;-70
2023/06/16 02:39:09;;;;;;;9.93;7.68;;;;;;;14.96;69.98;101763.22;5085230;28;20059;-71
2023/06/16 02:41:35;;;;;;;11.98;7.07;;;;;;;14.95;70.29;101764.13;5082212;28;20031;-70
2023/06/16 02:44:00;;;;;;;11.27;7.78;;;;;;;14.85;70.16;101760.03;5074685;28;20029;-70
2023/06/16 02:46:25;;;;;;;12.13;7.25;;;;;;;14.88;70.54;101765.19;5084765;28;20026;-70
2023/06/16 02:48:51;;;;;;;17.25;7.63;;;;;;;14.86;70.71;101767.00;5075881;28;20028;-70
2023/06/16 02:51:16;;;;;;;9.60;8.00;;;;;;;14.80;70.03;101765.38;5090101;28;20072;-70
2023/06/16 02:53:45;;;;;;;11.27;8.27;;;;;;;14.78;69.94;101764.59;5083365;28;20786;-70
2023/06/16 02:56:11;;;;;;;13.82;7.72;;;;;;;14.77;71.54;101764.59;5079052;28;20060;-70
2023/06/16 02:58:37;;;;;;;10.75;8.13;;;;;;;14.57;71.05;101747.63;5084251;28;20028;-70
2023/06/16 03:01:02;;;;;;;12.32;7.82;;;;;;;14.68;71.01;101763.06;5087125;28;20103;-70
2023/06/16 03:03:30;;;;;;;16.50;7.15;;;;;;;14.62;71.05;101763.25;5085354;28;20013;-71
2023/06/16 03:05:57;;;;;;;10.60;7.32;;;;;;;14.56;71.70;101768.66;5081815;28;20028;-70
2023/06/16 03:08:22;;;;;;;11.35;7.60;;;;;;;14.54;71.38;101773.06;5085849;28;20020;-70
2023/06/16 03:10:47;;;;;;;13.27;7.97;;;;;;;14.47;70.73;101767.94;5076037;28;20032;-71
2023/06/16 03:13:13;;;;;;;10.60;7.72;;;;;;;14.47;70.88;101769.72;5082184;28;20372;-70
2023/06/16 03:15:38;;;;;;;12.80;7.90;;;;;;;14.40;71.95;101771.63;5080489;28;20047;-70
2023/06/16 03:18:04;;;;;;;12.05;7.28;;;;;;;14.38;72.17;101776.03;5083711;28;20055;-70
2023/06/16 03:20:29;;;;;;;13.07;7.88;;;;;;;14.33;71.82;101770.06;5086492;28;20103;-71
2023/06/16 03:22:54;;;;;;;25.50;7.75;;;;;;;14.26;72.11;101764.09;5085627;28;20371;-70
2023/06/16 03:25:21;;;;;;;11.02;8.43;;;;;;;14.26;72.55;101766.72;5081334;28;20024;-70
2023/06/16 03:27:46;;;;;;;11.98;8.23;;;;;;;14.22;72.85;101770.31;5080736;28;20024;-71
2023/06/16 03:30:12;;;;;;;10.63;8.15;;;;;;;14.19;73.04;101772.13;5084069;28;20555;-70
2023/06/16 03:32:38;;;;;;;14.68;8.75;;;;;;;14.17;73.06;101773.94;5083475;28;20035;-70
2023/06/16 03:35:04;;;;;;;14.50;8.20;;;;;;;14.16;73.07;101780.06;5073900;28;20021;-70
2023/06/16 03:37:31;;;;;;;15.48;9.23;;;;;;;14.17;72.84;101774.78;5085270;28;20036;-70
2023/06/16 03:39:56;;;;;;;11.30;7.88;;;;;;;14.16;73.62;101765.22;5083131;28;20483;-70
2023/06/16 03:42:21;;;;;;;9.40;8.25;;;;;;;14.16;73.73;101778.31;5081309;28;20027;-71
2023/06/16 03:44:48;;;;;;;13.50;8.38;;;;;;;14.13;73.48;101780.16;5082932;28;20043;-70
2023/06/16 03:47:14;;;;;;;11.20;8.25;;;;;;;14.18;74.36;101779.13;5076523;28;20028;-70
2023/06/16 03:49:39;;;;;;;10.80;8.60;;;;;;;14.20;73.72;101782.59;5083546;28;20032;-70
2023/06/16 03:52:05;;;;;;;12.85;8.55;;;;;;;14.15;73.89;101779.19;5087075;28;20222;-70
2023/06/16 03:54:30;;;;;;;11.95;8.55;;;;;;;14.10;74.57;101775.84;5084473;28;20041;-70
2023/06/16 03:56:55;;;;;;;10.63;8.27;;;;;;;14.14;73.78;101782.72;5087076;28;20396;-70
2023/06/16 03:59:21;;;;;;;16.15;8.27;;;;;;;14.10;73.58;101781.09;5082938;28;20029;-70
2023/06/16 04:01:50;;;;;;;13.23;8.93;;;;;;;14.14;74.06;101780.13;5088347;28;20021;-70
2023/06/16 04:04:15;;;;;;;12.88;8.80;;;;;;;14.11;74.39;101777.56;5077062;28;20020;-70
2023/06/16 04:06:41;;;;;;;12.32;8.43;;;;;;;14.20;74.92;101786.97;5088538;28;20038;-71
2023/06/16 04:09:06;;;;;;;12.05;8.63;;;;;;;14.20;74.52;101774.72;5079268;28;20036;-70
2023/06/16 04:11:33;;;;;;;12.18;8.95;;;;;;;14.24;74.69;101784.25;5089114;28;20028;-70
2023/06/16 04:13:58;;;;;;;14.63;9.43;;;;;;;14.25;75.13;101783.34;5076399;28;20054;-70
2023/06/16 04:16:23;;;;;;;13.30;8.77;;;;;;;14.32;75.04;101796.31;5083125;28;20059;-70
2023/06/16 04:18:49;;;;;;;12.32;9.93;;;;;;;14.33;76.44;101798.06;5084019;28;20472;-70
2023/06/16 04:21:15;;;;;;;12.75;9.85;;;;;;;14.40;75.93;101794.38;5085025;28;20383;-70
2023/06/16 04:23:41;;;;;;;15.25;10.18;;;;;;;14.43;75.79;101792.53;5087210;28;20024;-70
2023/06/16 04:26:07;;;;;;;13.98;10.40;;;;;;;14.51;76.11;101795.00;5084538;28;20028;-70
2023/06/16 04:28:32;;;;;;;12.93;10.07;;;;;;;14.54;76.40;101805.41;5084294;28;20036;-70
2023/06/16 04:31:00;;;;;;;15.77;9.73;;;;;;;14.50;75.36;101796.75;5084561;28;20039;-70
2023/06/16 04:33:26;;;;;;;14.70;9.75;;;;;;;14.64;75.35;101798.19;5075169;28;20056;-70
2023/06/16 04:35:52;;;;;;;19.40;10.30;;;;;;;14.64;75.74;101799.03;5083747;28;20111;-70
2023/06/16 04:38:18;;;;;;;13.38;9.50;;;;;;;14.73;75.98;101797.94;5078303;28;20091;-70
2023/06/16 04:40:43;;;;;;;14.88;10.18;;;;;;;14.79;75.93;101805.66;5084981;28;20032;-70
2023/06/16 04:43:08;;;;;;;14.57;10.85;;;;;;;14.85;76.35;101792.38;5083679;28;20104;-70
2023/06/16 04:45:34;;;;;;;15.57;10.95;;;;;;;14.92;75.16;101793.09;5082788;28;20039;-70
2023/06/16 04:47:59;;;;;;;13.38;10.60;;;;;;;15.01;74.28;101800.72;5084735;28;20111;-70
2023/06/16 04:50:24;;;;;;;15.70;11.40;;;;;;;15.10;74.70;101805.72;5080585;28;20135;-70
2023/06/16 04:52:50;;;;;;;13.93;11.52;;;;;;;15.11;72.93;101790.84;5085068;28;20031;-70
2023/06/16 04:55:16;;;;;;;14.25;11.88;;;;;;;15.22;73.37;101791.41;5078113;28;20081;-70
2023/06/16 04:57:42;;;;;;;14.18;11.23;;;;;;;15.29;71.49;101800.81;5083864;28;20375;-70
2023/06/16 05:00:09;;;;;;;14.50;10.65;;;;;;;15.37;72.81;101804.13;5084778;28;20031;-70
2023/06/16 05:02:35;;;;;;;15.40;11.75;;;;;;;15.40;71.14;101800.50;5082951;28;20089;-70
2023/06/16 05:05:01;;;;;;;17.27;11.75;;;;;;;15.46;71.60;101795.09;5084156;28;20118;-70
2023/06/16 05:07:27;;;;;;;19.92;11.68;;;;;;;15.52;71.00;101794.91;5082918;28;20048;-71
2023/06/16 05:09:52;;;;;;;13.98;11.52;;;;;;;15.67;69.52;101801.53;5078374;28;20415;-70
2023/06/16 05:12:17;;;;;;;15.60;11.68;;;;;;;15.74;67.68;101810.97;5088190;28;20020;-70
2023/06/16 05:14:44;;;;;;;18.52;12.20;;;;;;;15.82;65.57;101803.69;5081990;28;20033;-70
2023/06/16 05:17:09;;;;;;;20.00;11.77;;;;;;;15.89;65.50;101804.38;5086229;28;20032;-70
2023/06/16 05:19:35;;;;;;;15.63;11.88;;;;;;;16.02;67.00;101810.13;5081098;28;20104;-70
2023/06/16 05:22:01;;;;;;;14.60;12.38;;;;;;;16.05;65.86;101810.88;5088463;28;20502;-70
2023/06/16 05:24:26;;;;;;;24.58;12.35;;;;;;;16.14;66.40;101804.47;5075391;28;20028;-71
2023/06/16 05:26:52;;;;;;;14.38;11.90;;;;;;;16.21;64.94;101805.16;5088753;28;20028;-70
2023/06/16 05:29:17;;;;;;;18.42;11.73;;;;;;;16.25;65.02;101806.75;5079799;28;20051;-70
2023/06/16 05:31:42;;;;;;;16.58;11.77;;;;;;;16.31;62.52;101811.84;5086186;28;20384;-70
2023/06/16 05:34:07;;;;;;;16.88;11.88;;;;;;;16.35;65.46;101808.22;5067346;28;20060;-70
2023/06/16 05:36:35;;;;;;;15.50;11.63;;;;;;;16.43;62.42;101807.97;5084776;28;20115;-70
2023/06/16 05:39:01;;;;;;;16.67;11.50;;;;;;;16.50;62.67;101812.97;5080514;28;20103;-70
2023/06/16 05:41:28;;;;;;;19.25;12.02;;;;;;;16.52;61.37;101805.88;5086072;28;20024;-71
2023/06/16 05:43:56;;;;;;;15.48;12.15;;;;;;;16.56;62.47;101809.28;5080768;28;20040;-70
2023/06/16 05:46:22;;;;;;;16.65;12.05;;;;;;;16.65;60.43;101811.63;5083284;28;20025;-70
2023/06/16 05:48:47;;;;;;;16.90;12.18;;;;;;;16.68;60.77;101808.03;5081496;28;20047;-70
2023/06/16 05:51:13;;;;;;;18.23;12.13;;;;;;;16.77;61.20;101818.25;5086958;28;20046;-70
2023/06/16 05:53:38;;;;;;;17.27;12.50;;;;;;;16.72;60.35;101794.69;5079938;28;20089;-70
2023/06/16 05:56:04;;;;;;;25.90;12.63;;;;;;;16.89;61.59;101812.56;5071918;28;20033;-70
2023/06/16 05:58:33;;;;;;;16.33;12.23;;;;;;;16.92;59.93;101807.19;5073134;28;20441;-70
2023/06/16 06:00:58;;;;;;;19.23;11.48;;;;;;;16.97;59.76;101805.28;5075571;28;20103;-70
2023/06/16 06:03:23;;;;;;;20.45;12.40;;;;;;;17.11;59.91;101822.38;5076459;28;20448;-70
2023/06/16 06:05:49;;;;;;;17.98;11.05;;;;;;;17.17;59.19;101822.16;5079494;28;20093;-70
2023/06/16 06:08:14;;;;;;;18.13;12.18;;;;;;;17.22;58.09;101831.59;5083380;28;20032;-70
2023/06/16 06:10:40;;;;;;;23.05;12.05;;;;;;;17.27;58.87;101831.47;5080520;28;20045;-70
2023/06/16 06:13:05;;;;;;;17.15;11.80;;;;;;;17.33;59.26;101836.53;5079936;28;20103;-70
2023/06/16 06:15:30;;;;;;;16.80;12.07;;;;;;;17.39;57.64;101830.13;5075281;28;20402;-70
2023/06/16 06:17:55;;;;;;;16.55;12.07;;;;;;;17.42;58.25;101822.97;5083242;28;20043;-70
2023/06/16 06:20:21;;;;;;;16.05;12.98;;;;;;;17.53;57.50;101834.00;5084531;28;20472;-70
2023/06/16 06:22:46;;;;;;;15.57;11.30;;;;;;;17.59;57.99;101827.63;5081229;28;20039;-70
2023/06/16 06:25:13;;;;;;;13.23;11.20;;;;;;;17.70;58.38;101833.38;5079923;28;20060;-70
2023/06/16 06:27:39;;;;;;;17.27;11.90;;;;;;;17.78;57.06;101828.69;5078922;28;20123;-70
2023/06/16 06:30:05;;;;;;;19.20;12.05;;;;;;;17.87;57.83;101835.41;5081483;28;20065;-70
2023/06/16 06:32:30;;;;;;;28.42;12.35;;;;;;;17.96;58.12;101837.69;5074700;28;20032;-70
2023/06/16 06:34:56;;;;;;;20.05;11.57;;;;;;;18.05;57.97;101835.59;5078729;28;20119;-70
2023/06/16 06:37:26;;;;;;;17.58;10.95;;;;;;;18.15;55.77;101844.91;5065695;28;20056;-71
2023/06/16 06:39:51;;;;;;;14.93;11.88;;;;;;;18.14;57.84;101817.63;5068439;28;20024;-71
2023/06/16 06:42:17;;;;;;;16.75;10.68;;;;;;;18.38;56.22;101844.84;5075608;28;20028;-71
2023/06/16 06:44:42;;;;;;;24.75;12.10;;;;;;;18.49;54.97;101847.91;5076938;28;20048;-71
2023/06/16 06:47:07;;;;;;;15.68;8.82;;;;;;;18.59;52.93;101842.25;5071844;28;20032;-71
2023/06/16 06:49:33;;;;;;;15.02;8.50;;;;;;;18.65;52.29;101844.66;5074215;28;20480;-71
2023/06/16 06:51:58;;;;;;;11.57;7.40;;;;;;;18.72;50.99;101843.50;5080781;28;20027;-70
2023/06/16 06:54:23;;;;;;;14.27;8.50;;;;;;;18.73;50.43;101828.50;5078849;28;20040;-71
2023/06/16 06:56:49;;;;;;;10.85;7.72;;;;;;;18.90;48.59;101844.50;5081975;28;20067;-71
2023/06/16 06:59:14;;;;;;;10.38;7.32;;;;;;;18.98;47.97;101845.03;5076692;28;20070;-71
2023/06/16 07:01:39;;;;;;;16.58;8.73;;;;;;;19.05;48.04;101845.63;5079961;28;20103;-71
2023/06/16 07:04:04;;;;;;;12.23;7.30;;;;;;;19.09;47.79;101836.63;5077620;28;20052;-71
2023/06/16 07:06:30;;;;;;;13.60;6.90;;;;;;;19.20;47.57;101837.03;5080885;28;20024;-70
2023/06/16 07:08:55;;;;;;;10.23;6.35;;;;;;;19.32;46.54;101846.22;5078102;28;20020;-70
2023/06/16 07:11:20;;;;;;;14.80;7.50;;;;;;;19.40;46.72;101849.38;5085550;28;20468;-71
2023/06/16 07:13:46;;;;;;;19.45;7.78;;;;;;;19.52;46.04;101851.50;5083670;28;20033;-70
2023/06/16 07:16:11;;;;;;;18.85;8.18;;;;;;;19.56;46.29;101852.22;5081511;28;20052;-70
2023/06/16 07:18:36;;;;;;;13.18;6.78;;;;;;;19.64;46.04;101848.31;5078525;28;20503;-70
2023/06/16 07:21:02;;;;;;;10.02;7.13;;;;;;;19.73;43.70;101854.97;5073134;28;20055;-71
2023/06/16 07:23:27;;;;;;;11.52;6.68;;;;;;;19.77;45.43;101848.59;5074156;28;20079;-71
2023/06/16 07:25:54;;;;;;;11.35;6.93;;;;;;;19.84;45.60;101854.47;5069708;28;20032;-71
2023/06/16 07:28:19;;;;;;;12.60;6.78;;;;;;;19.80;44.48;101840.53;5087530;28;20081;-76
2023/06/16 07:30:44;;;;;;;9.95;6.20;;;;;;;19.96;45.66;101848.59;5084592;28;20111;-71
2023/06/16 07:33:10;;;;;;;12.20;7.00;;;;;;;20.05;44.85;101850.84;5078526;28;20437;-71
2023/06/16 07:35:35;;;;;;;8.80;6.65;;;;;;;20.14;44.50;101849.50;5083587;28;20020;-70
2023/06/16 07:38:00;;;;;;;8.40;6.40;;;;;;;20.25;44.03;101844.59;5083823;28;20100;-71
2023/06/16 07:40:25;;;;;;;7.88;6.72;;;;;;;20.38;43.97;101849.28;5078237;28;20369;-70
2023/06/16 07:42:51;;;;;;;10.52;6.93;;;;;;;20.46;44.67;101849.75;5084819;28;20109;-71
2023/06/16 07:45:17;;;;;;;11.48;7.80;;;;;;;20.44;42.95;101841.91;5074975;28;20036;-70
2023/06/16 07:47:43;;;;;;;10.05;6.60;;;;;;;20.55;43.09;101855.50;5085661;28;20039;-71
2023/06/16 07:50:12;;;;;;;11.38;6.57;;;;;;;20.66;43.91;101852.31;5077775;28;20032;-71
2023/06/16 07:52:38;;;;;;;16.73;7.18;;;;;;;20.72;42.55;101854.66;5073511;28;20035;-69
2023/06/16 07:55:03;;;;;;;10.35;6.60;;;;;;;20.81;42.69;101848.91;5081127;28;20016;-69
2023/06/16 07:57:29;;;;;;;14.95;6.88;;;;;;;20.91;41.73;101853.75;5084045;28;20028;-69
2023/06/16 07:59:54;;;;;;;21.48;7.32;;;;;;;20.91;41.68;101835.19;5077925;28;20490;-72
2023/06/16 08:02:19;;;;;;;11.65;6.38;;;;;;;21.02;41.55;101849.59;5082006;28;20017;-70
2023/06/16 08:04:45;;;;;;;10.80;6.68;;;;;;;21.11;41.58;101848.25;5072264;28;20024;-69
2023/06/16 08:07:10;;;;;;;11.38;6.50;;;;;;;21.17;41.83;101847.94;5077584;28;20024;-70
2023/06/16 08:09:36;;;;;;;10.07;5.88;;;;;;;21.18;41.12;101836.41;5067963;28;20044;-70
2023/06/16 08:12:01;;;;;;;12.77;6.75;;;;;;;21.31;40.79;101836.63;5072813;28;20078;-70
2023/06/16 08:14:27;;;;;;;11.70;6.40;;;;;;;21.41;37.82;101844.97;5084539;28;20507;-70
2023/06/16 08:16:52;;;;;;;10.38;6.10;;;;;;;21.46;38.77;101842.94;5084407;28;20037;-70
2023/06/16 08:19:18;;;;;;;11.52;7.00;;;;;;;21.51;40.15;101835.59;5087162;28;20028;-70
2023/06/16 08:21:43;;;;;;;9.38;5.40;;;;;;;21.63;38.87;101844.69;5081879;28;20043;-70
2023/06/16 08:24:08;;;;;;;5.70;4.60;;;;;;;21.66;36.66;101826.81;5085556;28;20032;-70
2023/06/16 08:26:33;;;;;;;7.78;5.28;;;;;;;21.82;36.29;101828.63;5084016;28;20036;-70
2023/06/16 08:28:59;;;;;;;11.07;5.57;;;;;;;21.88;37.32;101829.16;5082949;28;20048;-70
2023/06/16 08:31:25;;;;;;;12.23;5.10;;;;;;;22.13;36.99;101844.53;5086211;28;20025;-70
2023/06/16 08:33:50;;;;;;;9.23;5.18;;;;;;;22.31;37.63;101847.16;5074473;28;20033;-70
2023/06/16 08:36:16;;;;;;;9.82;5.53;;;;;;;22.42;36.00;101842.06;5087844;28;20059;-70
2023/06/16 08:38:42;;;;;;;6.97;5.60;;;;;;;22.47;37.24;101832.06;5081439;28;20044;-70
2023/06/16 08:41:07;;;;;;;10.55;6.00;;;;;;;22.50;35.91;101837.19;5087672;28;20024;-70
2023/06/16 08:43:37;;;;;;;8.13;5.05;;;;;;;22.56;36.88;101828.88;5081635;28;20425;-70
2023/06/16 08:46:08;;;;;;;8.07;4.75;;;;;;;22.70;34.53;101832.50;5088391;28;20036;-70
2023/06/16 08:48:36;;;;;;;7.00;4.82;;;;;;;22.79;36.37;101834.59;5075061;28;20096;-70
2023/06/16 08:51:03;;;;;;;8.15;5.10;;;;;;;22.86;34.89;101836.81;5083435;28;20364;-70
2023/06/16 08:53:33;;;;;;;6.47;4.90;;;;;;;22.90;35.15;101835.69;5082097;28;20036;-70
2023/06/16 08:56:00;;;;;;;6.10;4.90;;;;;;;22.95;35.03;101830.13;5086234;28;20036;-70
2023/06/16 08:58:27;;;;;;;9.65;4.75;;;;;;;22.98;35.76;101816.63;5083234;28;20067;-70
2023/06/16 09:00:53;;;;;;;8.98;4.70;;;;;;;23.10;34.88;101821.22;5084970;28;20069;-70
2023/06/16 09:03:19;;;;;;;8.95;4.60;;;;;;;23.27;34.83;101822.00;5084500;28;20027;-70
2023/06/16 09:05:45;;;;;;;6.85;4.60;;;;;;;23.36;34.90;101822.28;5082970;28;20024;-70
2023/06/16 09:08:11;;;;;;;8.45;4.80;;;;;;;23.53;34.48;101828.38;5084821;28;20026;-70
2023/06/16 09:10:37;;;;;;;6.45;4.50;;;;;;;23.63;34.73;101828.66;5082257;28;20028;-70
2023/06/16 09:13:02;;;;;;;7.95;4.38;;;;;;;23.69;35.14;101826.47;5084751;28;20035;-70
2023/06/16 09:15:28;;;;;;;5.15;4.60;;;;;;;23.71;34.31;101829.06;5083512;28;20016;-70
2023/06/16 09:17:56;;;;;;;12.68;5.63;;;;;;;23.72;34.22;101826.28;5079502;28;20060;-70
2023/06/16 09:20:25;;;;;;;7.00;5.00;;;;;;;23.81;34.98;101822.19;5084681;28;20032;-70
2023/06/16 09:23:04;;;;;;;6.25;4.22;;;;;;;23.95;32.10;101830.16;5082997;28;20021;-70
2023/06/16 09:25:33;;;;;;;6.88;4.53;;;;;;;24.11;33.52;101824.69;5083793;28;20133;-70
2023/06/16 09:28:04;;;;;;;6.75;5.07;;;;;;;24.27;33.75;101819.22;5083307;28;20040;-70
2023/06/16 09:30:30;;;;;;;6.75;4.43;;;;;;;24.39;34.35;101830.84;5083031;28;20539;-70
2023/06/16 09:32:57;;;;;;;7.80;4.55;;;;;;;24.40;32.09;101825.44;5083017;28;20419;-70
2023/06/16 09:35:25;;;;;;;6.68;4.15;;;;;;;24.48;33.18;101828.47;5075273;28;20474;-70
2023/06/16 09:37:54;;;;;;;8.15;5.22;;;;;;;24.59;32.14;101824.22;5083835;28;20031;-70
2023/06/16 09:40:25;;;;;;;8.43;5.28;;;;;;;24.64;32.74;101827.47;5081904;28;20031;-69
2023/06/16 09:42:51;;;;;;;9.50;4.88;;;;;;;24.71;32.46;101818.06;5084270;28;20084;-70
2023/06/16 09:45:17;;;;;;;5.70;4.88;;;;;;;24.62;30.30;101818.69;5081918;28;20025;-70
2023/06/16 09:47:49;;;;;;;7.32;4.47;;;;;;;24.78;32.50;101824.69;5067232;28;20040;-70
2023/06/16 09:50:16;;;;;;;13.35;4.28;;;;;;;24.87;31.35;101816.06;5065428;28;20017;-70
2023/06/16 09:52:46;;;;;;;8.20;4.28;;;;;;;24.83;31.59;101817.25;5076959;28;20824;-71
2023/06/16 09:55:13;;;;;;;8.07;3.95;;;;;;;25.05;30.10;101813.97;5069629;28;20357;-72
2023/06/16 09:57:40;;;;;;;4.68;3.88;;;;;;;25.09;30.01;101806.59;5061188;28;20579;-70
2023/06/16 10:00:15;;;;;;;5.55;4.13;;;;;;;25.20;29.64;101815.59;5078129;28;20172;-70
2023/06/16 10:02:49;;;;;;;7.15;4.72;;;;;;;25.43;30.69;101813.13;5078747;28;20021;-71
2023/06/16 10:05:17;;;;;;;8.90;4.60;;;;;;;25.36;30.25;101810.03;5072618;28;20029;-72
2023/06/16 10:07:46;;;;;;;8.25;4.63;;;;;;;25.44;30.54;101813.03;5072261;28;20108;-70
2023/06/16 10:10:12;;;;;;;5.82;4.30;;;;;;;25.59;29.04;101799.53;5079896;28;20095;-70
2023/06/16 10:12:43;;;;;;;6.90;3.90;;;;;;;25.83;31.20;101796.94;5079179;28;20036;-71
2023/06/16 10:15:13;;;;;;;4.88;4.22;;;;;;;25.83;28.30;101800.47;5084458;28;20043;-70
2023/06/16 10:17:41;;;;;;;5.70;4.38;;;;;;;25.74;29.67;101809.13;5084261;28;20036;-70
2023/06/16 10:20:10;;;;;;;5.57;4.60;;;;;;;25.80;30.51;101803.38;5084018;28;20035;-70
2023/06/16 10:22:35;;;;;;;6.07;4.30;;;;;;;25.77;29.07;101798.22;5086664;28;20056;-70
2023/06/16 10:25:03;;;;;;;11.98;4.45;;;;;;;25.82;27.89;101801.41;5080509;28;20463;-71
2023/06/16 10:27:29;;;;;;;6.18;4.22;;;;;;;25.93;29.39;101803.28;5077055;28;20047;-70
2023/06/16 10:29:56;;;;;;;6.60;4.50;;;;;;;26.06;29.56;101793.44;5077614;28;20037;-70
2023/06/16 10:32:21;;;;;;;5.18;4.30;;;;;;;26.07;28.27;101794.28;5075932;28;20103;-71
2023/06/16 10:34:49;;;;;;;7.75;4.70;;;;;;;26.04;26.14;101795.38;5069860;28;20123;-71
2023/06/16 10:37:15;;;;;;;9.57;4.70;;;;;;;26.10;27.74;101794.06;5080069;28;20043;-70
2023/06/16 10:39:44;;;;;;;7.40;4.53;;;;;;;26.13;27.80;101783.16;5079709;28;20032;-71
2023/06/16 10:42:13;;;;;;;11.02;4.72;;;;;;;26.21;28.06;101783.41;5067261;28;20082;-70
2023/06/16 10:44:39;;;;;;;6.15;3.92;;;;;;;26.33;29.44;101782.50;5080673;28;20420;-71
2023/06/16 10:47:05;;;;;;;9.75;4.38;;;;;;;26.35;26.11;101777.03;5081835;28;20028;-71
2023/06/16 10:49:31;;;;;;;7.15;4.43;;;;;;;26.47;27.68;101780.59;5080109;28;20069;-70
2023/06/16 10:51:58;;;;;;;7.63;4.80;;;;;;;26.51;26.19;101782.94;5081992;28;20218;-71
2023/06/16 10:54:33;;;;;;;6.95;3.97;;;;;;;26.67;28.56;101782.63;5085648;28;20032;-70
2023/06/16 10:57:08;;;;;;;8.65;4.47;;;;;;;26.83;27.33;101782.31;5077802;28;20032;-70
2023/06/16 10:59:52;;;;;;;8.13;4.50;;;;;;;27.03;29.39;101770.03;5085139;28;20037;-71
2023/06/16 11:02:20;;;;;;;7.63;4.30;;;;;;;27.17;28.06;101769.84;5085568;28;20025;-70
2023/06/16 11:05:07;;;;;;;24.17;6.28;;;;;;;27.37;28.51;101764.72;5072078;28;20024;-71
2023/06/16 11:07:36;;;;;;;4.82;4.10;;;;;;;27.45;26.34;101755.09;5077733;28;20054;-71
2023/06/16 11:10:01;;;;;;;5.03;4.35;;;;;;;27.59;26.29;101766.53;5086747;28;20028;-71
2023/06/16 11:12:26;;;;;;;13.55;4.90;;;;;;;27.74;27.50;101746.53;5085672;28;20032;-70
2023/06/16 11:14:52;;;;;;;6.38;4.60;;;;;;;27.74;28.02;101752.75;5086249;28;20051;-71
2023/06/16 11:17:18;;;;;;;6.43;4.53;;;;;;;27.83;28.11;101766.38;5075758;28;20036;-70